createdAt,value
2022-08-19T00:02:00.191Z,99835.00
2022-08-19T00:04:36.124Z,99828.00
2022-08-19T00:07:06.221Z,99829.00
2022-08-19T00:09:34.493Z,99835.00
2022-08-19T00:12:02.575Z,99842.00
2022-08-19T00:14:32.895Z,99847.00
2022-08-19T00:17:02.182Z,99843.00
2022-08-19T00:19:30.378Z,99843.00
2022-08-19T00:21:58.450Z,99835.00
2022-08-19T00:24:26.905Z,99836.00
2022-08-19T00:26:56.352Z,99836.00
2022-08-19T00:29:25.677Z,99836.00
2022-08-19T00:31:59.153Z,99837.00
2022-08-19T00:34:30.635Z,99833.00
2022-08-19T00:36:59.018Z,99830.00
2022-08-19T00:39:27.065Z,99833.00
2022-08-19T00:41:55.268Z,99846.00
2022-08-19T00:44:26.725Z,99835.00
2022-08-19T00:46:58.277Z,99827.00
2022-08-19T00:49:30.313Z,99831.00
2022-08-19T00:52:23.382Z,99826.00
2022-08-19T00:54:52.956Z,99824.00
2022-08-19T00:57:38.786Z,99827.00
2022-08-19T01:00:12.822Z,99830.00
2022-08-19T01:02:42.069Z,99818.00
2022-08-19T01:05:21.273Z,99821.00
2022-08-19T01:07:49.955Z,99823.00
2022-08-19T01:10:21.035Z,99821.00
2022-08-19T01:12:49.734Z,99817.00
2022-08-19T01:15:20.520Z,99819.00
2022-08-19T01:17:48.695Z,99803.00
2022-08-19T01:20:24.005Z,99801.00
2022-08-19T01:22:58.446Z,99803.00
2022-08-19T01:25:51.884Z,99806.00
2022-08-19T01:28:34.335Z,99804.00
2022-08-19T01:31:26.378Z,99796.00
2022-08-19T01:33:57.103Z,99803.00
2022-08-19T01:36:31.600Z,99797.00
2022-08-19T01:39:00.619Z,99799.00
2022-08-19T01:41:28.891Z,99792.00
2022-08-19T01:44:13.769Z,99793.00
2022-08-19T01:46:48.502Z,99783.00
2022-08-19T01:49:18.863Z,99779.00
2022-08-19T01:51:46.643Z,99776.00
2022-08-19T01:54:26.948Z,99779.00
2022-08-19T01:57:07.837Z,99775.00
2022-08-19T01:59:37.725Z,99775.00
2022-08-19T02:02:09.603Z,99772.00
2022-08-19T02:04:39.226Z,99780.00
2022-08-19T02:07:09.368Z,99784.00
2022-08-19T02:09:37.645Z,99781.00
2022-08-19T02:12:06.430Z,99775.00
2022-08-19T02:14:36.914Z,99788.00
2022-08-19T02:17:05.419Z,99790.00
2022-08-19T02:19:33.821Z,99797.00
2022-08-19T02:22:02.836Z,99781.00
2022-08-19T02:24:31.130Z,99782.00
2022-08-19T02:26:59.958Z,99788.00
2022-08-19T02:29:27.762Z,99787.00
2022-08-19T02:31:55.633Z,99787.00
2022-08-19T02:34:23.617Z,99792.00
2022-08-19T02:36:52.441Z,99788.00
2022-08-19T02:39:20.801Z,99784.00
2022-08-19T02:41:49.138Z,99777.00
2022-08-19T02:44:29.497Z,99770.00
2022-08-19T02:47:00.348Z,99764.00
2022-08-19T02:49:28.296Z,99766.00
2022-08-19T02:51:56.275Z,99760.00
2022-08-19T02:54:24.249Z,99758.00
2022-08-19T02:56:52.645Z,99763.00
2022-08-19T02:59:22.031Z,99763.00
2022-08-19T03:01:51.094Z,99768.00
2022-08-19T03:04:20.422Z,99767.00
2022-08-19T03:06:49.292Z,99774.00
2022-08-19T03:09:18.002Z,99785.00
2022-08-19T03:11:46.082Z,99793.00
2022-08-19T03:14:14.723Z,99796.00
2022-08-19T03:16:53.230Z,99808.00
2022-08-19T03:19:25.695Z,99807.00
2022-08-19T03:21:53.906Z,99806.00
2022-08-19T03:24:22.915Z,99805.00
2022-08-19T03:26:53.845Z,99800.00
2022-08-19T03:29:30.209Z,99800.00
2022-08-19T03:32:02.028Z,99802.00
2022-08-19T03:34:34.527Z,99798.00
2022-08-19T03:37:08.638Z,99798.00
2022-08-19T03:43:50.901Z,99806.00
2022-08-19T03:46:25.557Z,99800.00
2022-08-19T03:48:55.887Z,99789.00
2022-08-19T03:51:30.911Z,99787.00
2022-08-19T03:54:00.829Z,99782.00
2022-08-19T03:56:29.997Z,99789.00
2022-08-19T03:59:00.024Z,99792.00
2022-08-19T04:01:30.893Z,99795.00
2022-08-19T04:04:04.618Z,99794.00
2022-08-19T04:06:38.784Z,99793.00
2022-08-19T04:09:11.330Z,99808.00
2022-08-19T04:11:44.542Z,99812.00
2022-08-19T04:14:16.121Z,99821.00
2022-08-19T04:16:46.071Z,99808.00
2022-08-19T04:19:15.444Z,99819.00
2022-08-19T04:21:46.740Z,99820.00
2022-08-19T04:24:15.053Z,99819.00
2022-08-19T04:26:43.845Z,99809.00
2022-08-19T04:29:23.239Z,99820.00
2022-08-19T04:31:51.757Z,99822.00
2022-08-19T04:34:25.268Z,99828.00
2022-08-19T04:36:54.866Z,99827.00
2022-08-19T04:39:46.260Z,99825.00
2022-08-19T04:42:33.112Z,99818.00
2022-08-19T04:45:01.176Z,99824.00
2022-08-19T04:47:49.148Z,99837.00
2022-08-19T04:50:17.071Z,99830.00
2022-08-19T04:52:47.003Z,99828.00
2022-08-19T04:55:15.685Z,99827.00
2022-08-19T04:57:43.588Z,99827.00
2022-08-19T05:00:12.402Z,99826.00
2022-08-19T05:02:41.009Z,99820.00
2022-08-19T05:05:09.415Z,99811.00
2022-08-19T05:07:37.623Z,99801.00
2022-08-19T05:10:07.732Z,99805.00
2022-08-19T05:12:35.822Z,99809.00
2022-08-19T05:15:05.409Z,99808.00
2022-08-19T05:17:38.062Z,99804.00
2022-08-19T05:20:26.601Z,99805.00
2022-08-19T05:22:54.689Z,99804.00
2022-08-19T05:25:23.199Z,99804.00
2022-08-19T05:27:51.427Z,99818.00
2022-08-19T05:30:33.467Z,99819.00
2022-08-19T05:33:11.540Z,99813.00
2022-08-19T05:35:40.582Z,99807.00
2022-08-19T05:38:09.621Z,99807.00
2022-08-19T05:40:38.337Z,99818.00
2022-08-19T05:43:07.941Z,99818.00
2022-08-19T05:45:41.463Z,99825.00
2022-08-19T05:48:12.374Z,99824.00
2022-08-19T05:50:42.082Z,99828.00
2022-08-19T05:53:10.375Z,99819.00
2022-08-19T05:55:39.979Z,99826.00
2022-08-19T05:58:10.550Z,99825.00
2022-08-19T06:00:39.388Z,99831.00
2022-08-19T06:03:11.811Z,99828.00
2022-08-19T06:05:46.827Z,99828.00
2022-08-19T06:08:20.456Z,99829.00
2022-08-19T06:11:14.123Z,99836.00
2022-08-19T06:13:42.532Z,99834.00
2022-08-19T06:16:10.494Z,99848.00
2022-08-19T06:18:38.286Z,99860.00
2022-08-19T06:21:06.181Z,99858.00
2022-08-19T06:23:36.540Z,99855.00
2022-08-19T06:26:04.416Z,99873.00
2022-08-19T06:28:34.209Z,99867.00
2022-08-19T06:31:08.498Z,99875.00
2022-08-19T06:33:37.031Z,99874.00
2022-08-19T06:36:05.597Z,99880.00
2022-08-19T06:38:34.960Z,99885.00
2022-08-19T06:41:07.716Z,99878.00
2022-08-19T06:43:42.176Z,99889.00
2022-08-19T06:46:15.377Z,99886.00
2022-08-19T06:48:45.535Z,99897.00
2022-08-19T06:51:19.376Z,99896.00
2022-08-19T06:56:32.210Z,99898.00
2022-08-19T06:59:07.631Z,99896.00
2022-08-19T07:01:41.762Z,99906.00
2022-08-19T07:04:12.245Z,99907.00
2022-08-19T07:06:43.926Z,99914.00
2022-08-19T07:09:18.329Z,99912.00
2022-08-19T07:11:51.963Z,99916.00
2022-08-19T07:14:22.976Z,99916.00
2022-08-19T07:16:52.736Z,99926.00
2022-08-19T07:19:21.579Z,99911.00
2022-08-19T07:21:53.878Z,99927.00
2022-08-19T07:24:25.297Z,99936.00
2022-08-19T07:26:55.071Z,99937.00
2022-08-19T07:29:25.725Z,99937.00
2022-08-19T07:31:57.784Z,99936.00
2022-08-19T07:34:29.436Z,99953.00
2022-08-19T07:36:57.892Z,99957.00
2022-08-19T07:39:29.139Z,99957.00
2022-08-19T07:41:57.592Z,99952.00
2022-08-19T07:44:25.844Z,99955.00
2022-08-19T07:46:57.087Z,99956.00
2022-08-19T07:49:25.657Z,99962.00
2022-08-19T07:52:05.004Z,99966.00
2022-08-19T07:54:37.586Z,99964.00
2022-08-19T07:57:06.347Z,99966.00
2022-08-19T07:59:34.588Z,99972.00
2022-08-19T08:02:03.570Z,99968.00
2022-08-19T08:04:51.505Z,99967.00
2022-08-19T08:07:37.989Z,99962.00
2022-08-19T08:10:12.628Z,99967.00
2022-08-19T08:13:05.838Z,99962.00
2022-08-19T08:15:42.149Z,99967.00
2022-08-19T08:18:12.560Z,99968.00
2022-08-19T08:20:41.083Z,99972.00
2022-08-19T08:23:26.252Z,99977.00
2022-08-19T08:25:57.712Z,99977.00
2022-08-19T08:28:29.313Z,99974.00
2022-08-19T08:30:58.962Z,99970.00
2022-08-19T08:33:33.867Z,99973.00
2022-08-19T08:36:05.049Z,99969.00
2022-08-19T08:38:39.061Z,99970.00
2022-08-19T08:41:41.859Z,99970.00
2022-08-19T08:44:21.941Z,99969.00
2022-08-19T08:47:00.141Z,99964.00
2022-08-19T08:49:34.728Z,99964.00
2022-08-19T08:52:06.796Z,99963.00
2022-08-19T08:54:54.926Z,99968.00
2022-08-19T08:57:37.620Z,99977.00
2022-08-19T09:00:15.546Z,99983.00
2022-08-19T09:02:44.763Z,99979.00
2022-08-19T09:05:25.758Z,99976.00
2022-08-19T09:08:19.276Z,99980.00
2022-08-19T09:10:55.204Z,99971.00
2022-08-19T09:13:57.375Z,99977.00
2022-08-19T09:16:28.544Z,99972.00
2022-08-19T09:19:00.119Z,99976.00
2022-08-19T09:21:30.579Z,99980.00
2022-08-19T09:24:03.520Z,99979.00
2022-08-19T09:26:48.698Z,99985.00
2022-08-19T09:29:22.755Z,99982.00
2022-08-19T09:31:51.301Z,99980.00
2022-08-19T09:34:22.055Z,99989.00
2022-08-19T09:36:54.780Z,99980.00
2022-08-19T09:39:22.999Z,99994.00
2022-08-19T09:41:51.346Z,99985.00
2022-08-19T09:44:21.956Z,99987.00
2022-08-19T09:46:50.106Z,99993.00
2022-08-19T09:49:19.473Z,99986.00
2022-08-19T09:51:52.288Z,99984.00
2022-08-19T09:54:23.548Z,99979.00
2022-08-19T09:56:54.159Z,99980.00
2022-08-19T09:59:22.223Z,99982.00
2022-08-19T10:01:50.145Z,99976.00
2022-08-19T10:04:20.517Z,99984.00
2022-08-19T10:06:53.829Z,99975.00
2022-08-19T10:09:26.124Z,99974.00
2022-08-19T10:11:55.221Z,99974.00
2022-08-19T10:14:24.869Z,99978.00
2022-08-19T10:16:53.134Z,99981.00
2022-08-19T10:19:25.623Z,99976.00
2022-08-19T10:21:58.639Z,99976.00
2022-08-19T10:24:29.265Z,99975.00
2022-08-19T10:26:59.633Z,99966.00
2022-08-19T10:29:32.256Z,99973.00
2022-08-19T10:32:10.031Z,99968.00
2022-08-19T10:34:48.106Z,99967.00
2022-08-19T10:37:29.160Z,99960.00
2022-08-19T10:40:00.578Z,99958.00
2022-08-19T10:42:28.750Z,99953.00
2022-08-19T10:44:56.677Z,99940.00
2022-08-19T10:47:26.491Z,99945.00
2022-08-19T10:50:21.361Z,99945.00
2022-08-19T10:52:56.520Z,99937.00
2022-08-19T10:55:44.427Z,99937.00
2022-08-19T10:58:17.299Z,99931.00
2022-08-19T11:00:51.893Z,99937.00
2022-08-19T11:03:19.933Z,99933.00
2022-08-19T11:05:50.436Z,99927.00
2022-08-19T11:08:23.093Z,99931.00
2022-08-19T11:11:00.360Z,99928.00
2022-08-19T11:13:29.779Z,99921.00
2022-08-19T11:16:07.654Z,99911.00
2022-08-19T11:18:48.146Z,99921.00
2022-08-19T11:21:34.896Z,99920.00
2022-08-19T11:24:09.217Z,99911.00
2022-08-19T11:26:38.313Z,99911.00
2022-08-19T11:29:08.400Z,99907.00
2022-08-19T11:31:37.482Z,99897.00
2022-08-19T11:34:07.377Z,99909.00
2022-08-19T11:36:36.264Z,99905.00
2022-08-19T11:39:09.136Z,99906.00
2022-08-19T11:41:37.284Z,99911.00
2022-08-19T11:44:06.086Z,99913.00
2022-08-19T11:46:34.278Z,99908.00
2022-08-19T11:49:04.234Z,99916.00
2022-08-19T11:51:32.457Z,99912.00
2022-08-19T11:54:01.579Z,99908.00
2022-08-19T11:56:30.176Z,99915.00
2022-08-19T11:58:58.188Z,99913.00
2022-08-19T12:01:27.715Z,99900.00
2022-08-19T12:03:57.358Z,99912.00
2022-08-19T12:06:32.936Z,99910.00
2022-08-19T12:09:04.257Z,99907.00
2022-08-19T12:11:34.740Z,99906.00
2022-08-19T12:14:03.095Z,99908.00
2022-08-19T12:16:33.894Z,99903.00
2022-08-19T12:19:05.206Z,99900.00
2022-08-19T12:21:36.209Z,99898.00
2022-08-19T12:24:06.231Z,99906.00
2022-08-19T12:26:35.921Z,99908.00
2022-08-19T12:29:23.968Z,99898.00
2022-08-19T12:31:52.644Z,99905.00
2022-08-19T12:34:21.315Z,99902.00
2022-08-19T12:36:50.641Z,99898.00
2022-08-19T12:39:18.905Z,99899.00
2022-08-19T12:41:51.442Z,99904.00
2022-08-19T12:44:29.210Z,99903.00
2022-08-19T12:46:58.019Z,99925.00
2022-08-19T12:49:52.041Z,99899.00
2022-08-19T12:52:23.033Z,99904.00
2022-08-19T12:54:54.058Z,99901.00
2022-08-19T12:57:31.467Z,99897.00
2022-08-19T13:00:13.752Z,99899.00
2022-08-19T13:02:45.305Z,99896.00
2022-08-19T13:05:17.171Z,99902.00
2022-08-19T13:07:45.163Z,99906.00
2022-08-19T13:10:18.948Z,99895.00
2022-08-19T13:12:48.591Z,99897.00
2022-08-19T13:15:23.676Z,99900.00
2022-08-19T13:17:54.405Z,99898.00
2022-08-19T13:20:23.459Z,99900.00
2022-08-19T13:22:51.427Z,99899.00
2022-08-19T13:25:21.031Z,99888.00
2022-08-19T13:27:50.524Z,99884.00
2022-08-19T13:30:39.073Z,99890.00
2022-08-19T13:33:15.914Z,99879.00
2022-08-19T13:35:48.588Z,99887.00
2022-08-19T13:38:19.548Z,99880.00
2022-08-19T13:40:47.741Z,99884.00
2022-08-19T13:43:22.412Z,99885.00
2022-08-19T13:45:57.553Z,99877.00
2022-08-19T13:48:26.497Z,99883.00
2022-08-19T13:50:55.352Z,99887.00
2022-08-19T13:53:23.725Z,99876.00
2022-08-19T13:55:52.346Z,99871.00
2022-08-19T13:58:20.956Z,99872.00
2022-08-19T14:00:49.395Z,99879.00
2022-08-19T14:03:17.329Z,99867.00
2022-08-19T14:05:45.541Z,99878.00
2022-08-19T14:08:15.484Z,99873.00
2022-08-19T14:10:45.595Z,99877.00
2022-08-19T14:13:18.484Z,99877.00
2022-08-19T14:15:47.009Z,99864.00
2022-08-19T14:18:16.125Z,99876.00
2022-08-19T14:20:44.192Z,99871.00
2022-08-19T14:23:13.988Z,99869.00
2022-08-19T14:25:41.910Z,99861.00
2022-08-19T14:28:09.960Z,99865.00
2022-08-19T14:30:38.930Z,99864.00
2022-08-19T14:33:08.397Z,99873.00
2022-08-19T14:35:36.922Z,99869.00
2022-08-19T14:38:07.251Z,99872.00
2022-08-19T14:40:36.071Z,99879.00
2022-08-19T14:43:05.631Z,99874.00
2022-08-19T14:45:37.469Z,99876.00
2022-08-19T14:48:18.815Z,99866.00
2022-08-19T14:55:47.742Z,99861.00
2022-08-19T14:58:29.469Z,99861.00
2022-08-19T15:01:00.503Z,99860.00
2022-08-19T15:03:29.512Z,99859.00
2022-08-19T15:05:59.012Z,99875.00
2022-08-19T15:08:27.937Z,99865.00
2022-08-19T15:10:56.301Z,99871.00
2022-08-19T15:13:25.784Z,99877.00
2022-08-19T15:15:54.055Z,99880.00
2022-08-19T15:18:22.904Z,99884.00
2022-08-19T15:20:52.101Z,99884.00
2022-08-19T15:23:20.980Z,99885.00
2022-08-19T15:25:49.097Z,99893.00
2022-08-19T15:28:17.507Z,99888.00
2022-08-19T15:30:45.579Z,99881.00
2022-08-19T15:33:18.789Z,99891.00
2022-08-19T15:35:47.211Z,99892.00
2022-08-19T15:38:16.387Z,99886.00
2022-08-19T15:40:44.593Z,99875.00
2022-08-19T15:43:12.591Z,99864.00
2022-08-19T15:45:45.227Z,99868.00
2022-08-19T15:48:15.551Z,99875.00
2022-08-19T15:50:43.963Z,99884.00
2022-08-19T15:53:14.036Z,99893.00
2022-08-19T15:55:48.773Z,99882.00
2022-08-19T15:58:35.494Z,99889.00
2022-08-19T16:01:27.344Z,99889.00
2022-08-19T16:04:15.756Z,99902.00
2022-08-19T16:06:50.013Z,99907.00
2022-08-19T16:09:22.246Z,99899.00
2022-08-19T16:12:01.852Z,99895.00
2022-08-19T16:14:35.229Z,99895.00
2022-08-19T16:17:03.334Z,99900.00
2022-08-19T16:19:32.298Z,99890.00
2022-08-19T16:22:00.498Z,99883.00
2022-08-19T16:24:29.472Z,99875.00
2022-08-19T16:26:57.824Z,99876.00
2022-08-19T16:29:33.901Z,99871.00
2022-08-19T16:32:10.491Z,99876.00
2022-08-19T16:34:40.774Z,99878.00
2022-08-19T16:37:10.310Z,99877.00
2022-08-19T16:39:38.809Z,99871.00
2022-08-19T16:42:10.708Z,99867.00
2022-08-19T16:44:45.183Z,99868.00
2022-08-19T16:47:14.504Z,99861.00
2022-08-19T16:49:52.965Z,99865.00
2022-08-19T16:52:26.514Z,99860.00
2022-08-19T16:54:55.133Z,99869.00
2022-08-19T16:57:24.172Z,99873.00
2022-08-19T16:59:52.612Z,99879.00
2022-08-19T17:02:23.462Z,99870.00
2022-08-19T17:04:57.395Z,99887.00
2022-08-19T17:07:28.428Z,99883.00
2022-08-19T17:09:57.414Z,99893.00
2022-08-19T17:12:30.525Z,99887.00
2022-08-19T17:15:01.217Z,99883.00
2022-08-19T17:17:30.581Z,99881.00
2022-08-19T17:20:00.763Z,99885.00
2022-08-19T17:22:29.033Z,99884.00
2022-08-19T17:24:57.974Z,99879.00
2022-08-19T17:27:31.996Z,99886.00
2022-08-19T17:30:04.502Z,99893.00
2022-08-19T17:32:35.209Z,99898.00
2022-08-19T17:35:04.400Z,99891.00
2022-08-19T17:37:32.673Z,99890.00
2022-08-19T17:40:01.892Z,99898.00
2022-08-19T17:42:30.084Z,99893.00
2022-08-19T17:45:01.016Z,99885.00
2022-08-19T17:47:29.590Z,99883.00
2022-08-19T17:49:58.015Z,99883.00
2022-08-19T17:52:26.153Z,99885.00
2022-08-19T17:54:54.157Z,99879.00
2022-08-19T17:57:22.350Z,99885.00
2022-08-19T17:59:50.680Z,99888.00
2022-08-19T18:02:19.842Z,99886.00
2022-08-19T18:04:49.912Z,99885.00
2022-08-19T18:07:21.772Z,99881.00
2022-08-19T18:09:52.170Z,99879.00
2022-08-19T18:12:26.971Z,99882.00
2022-08-19T18:14:55.214Z,99889.00
2022-08-19T18:17:23.720Z,99895.00
2022-08-19T18:19:51.851Z,99907.00
2022-08-19T18:22:37.821Z,99911.00
2022-08-19T18:25:12.730Z,99910.00
2022-08-19T18:27:41.547Z,99904.00
2022-08-19T18:30:10.990Z,99903.00
2022-08-19T18:32:42.484Z,99905.00
2022-08-19T18:35:12.933Z,99914.00
2022-08-19T18:37:45.117Z,99908.00
2022-08-19T18:40:35.313Z,99909.00
2022-08-19T18:43:23.678Z,99911.00
2022-08-19T18:46:10.611Z,99916.00
2022-08-19T18:48:59.258Z,99920.00
2022-08-19T18:51:30.519Z,99919.00
2022-08-19T18:53:59.813Z,99916.00
2022-08-19T18:56:32.983Z,99927.00
2022-08-19T18:59:01.839Z,99920.00
2022-08-19T19:01:37.250Z,99929.00
2022-08-19T19:04:10.811Z,99926.00
2022-08-19T19:06:41.270Z,99924.00
2022-08-19T19:09:18.430Z,99931.00
2022-08-19T19:11:50.606Z,99938.00
2022-08-19T19:14:47.565Z,99941.00
2022-08-19T19:17:15.379Z,99942.00
2022-08-19T19:19:44.279Z,99942.00
2022-08-19T19:22:15.010Z,99952.00
2022-08-19T19:24:45.607Z,99951.00
2022-08-19T19:27:15.271Z,99945.00
2022-08-19T19:29:43.570Z,99953.00
2022-08-19T19:32:18.922Z,99949.00
2022-08-19T19:34:47.216Z,99953.00
2022-08-19T19:37:16.582Z,99954.00
2022-08-19T19:39:46.107Z,99953.00
2022-08-19T19:42:21.200Z,99960.00
2022-08-19T19:44:54.855Z,99955.00
2022-08-19T19:47:30.414Z,99955.00
2022-08-19T19:50:15.340Z,99952.00
2022-08-19T19:52:45.940Z,99959.00
2022-08-19T19:55:18.225Z,99968.00
2022-08-19T19:57:50.152Z,99970.00
2022-08-19T20:00:19.270Z,99967.00
2022-08-19T20:02:50.189Z,99972.00
2022-08-19T20:05:21.632Z,99977.00
2022-08-19T20:08:09.159Z,99986.00
2022-08-19T20:10:37.709Z,99982.00
2022-08-19T20:13:06.656Z,99986.00
2022-08-19T20:15:39.082Z,99980.00
2022-08-19T20:18:10.985Z,99988.00
2022-08-19T20:20:39.370Z,99994.00
2022-08-19T20:23:07.406Z,99987.00
2022-08-19T20:25:39.075Z,99994.00
2022-08-19T20:28:07.035Z,99999.00
2022-08-19T20:30:34.977Z,99998.00
2022-08-19T20:33:07.048Z,99993.00
2022-08-19T20:35:36.902Z,99998.00
2022-08-19T20:38:08.894Z,99990.00
2022-08-19T20:40:38.227Z,99995.00
2022-08-19T20:43:11.258Z,99996.00
2022-08-19T20:45:41.804Z,99997.00
2022-08-19T20:48:12.440Z,99995.00
2022-08-19T20:50:40.686Z,100000.00
2022-08-19T20:53:14.455Z,100004.00
2022-08-19T20:55:45.548Z,100002.00
2022-08-19T20:58:14.200Z,100003.00
2022-08-19T21:00:44.953Z,100006.00
2022-08-19T21:03:16.238Z,100011.00
2022-08-19T21:05:45.889Z,100002.00
2022-08-19T21:08:14.895Z,100011.00
2022-08-19T21:10:42.696Z,100015.00
2022-08-19T21:13:10.568Z,100012.00
2022-08-19T21:15:43.488Z,100019.00
2022-08-19T21:18:12.559Z,100015.00
2022-08-19T21:20:42.184Z,100012.00
2022-08-19T21:23:13.277Z,100019.00
2022-08-19T21:25:41.403Z,100015.00
2022-08-19T21:28:35.727Z,100010.00
2022-08-19T21:31:06.410Z,100019.00
2022-08-19T21:33:34.412Z,100017.00
2022-08-19T21:36:03.205Z,100011.00
2022-08-19T21:38:31.245Z,100003.00
2022-08-19T21:40:59.401Z,100005.00
2022-08-19T21:43:32.548Z,100013.00
2022-08-19T21:46:00.367Z,100009.00
2022-08-19T21:48:28.812Z,100010.00
2022-08-19T21:50:56.904Z,100007.00
2022-08-19T21:53:26.196Z,100018.00
2022-08-19T21:56:03.251Z,100016.00
2022-08-19T21:58:31.250Z,100014.00
2022-08-19T22:01:06.316Z,100019.00
2022-08-19T22:03:35.618Z,100015.00
2022-08-19T22:06:03.573Z,100007.00
2022-08-19T22:08:31.806Z,100005.00
2022-08-19T22:10:59.892Z,100001.00
2022-08-19T22:13:29.085Z,100002.00
2022-08-19T22:15:56.978Z,100010.00
2022-08-19T22:18:24.984Z,100004.00
2022-08-19T22:20:52.817Z,100008.00
2022-08-19T22:23:21.094Z,100008.00
2022-08-19T22:25:48.986Z,100012.00
2022-08-19T22:28:18.848Z,99999.00
2022-08-19T22:30:51.252Z,99993.00
2022-08-19T22:33:21.416Z,99996.00
2022-08-19T22:35:49.580Z,99986.00
2022-08-19T22:38:17.700Z,99987.00
2022-08-19T22:40:48.599Z,99994.00
2022-08-19T22:43:25.128Z,99991.00
2022-08-19T22:45:55.046Z,99997.00
2022-08-19T22:48:25.416Z,99995.00
2022-08-19T22:51:12.692Z,100001.00
2022-08-19T22:53:44.280Z,100002.00
2022-08-19T22:56:15.333Z,99998.00
2022-08-19T22:58:44.623Z,100000.00
2022-08-19T23:01:26.980Z,100006.00
2022-08-19T23:03:58.696Z,100004.00
2022-08-19T23:06:27.960Z,100001.00
2022-08-19T23:09:04.824Z,100005.00
2022-08-19T23:11:41.477Z,99997.00
2022-08-19T23:14:11.335Z,100000.00
2022-08-19T23:16:39.595Z,100004.00
2022-08-19T23:19:10.224Z,99997.00
2022-08-19T23:21:42.206Z,99993.00
2022-08-19T23:24:10.382Z,99991.00
2022-08-19T23:26:38.492Z,99995.00
2022-08-19T23:29:25.623Z,99990.00
2022-08-19T23:31:53.690Z,99986.00
2022-08-19T23:34:21.476Z,99995.00
2022-08-19T23:36:50.705Z,99991.00
2022-08-19T23:39:19.475Z,99989.00
2022-08-19T23:41:47.652Z,99989.00
2022-08-19T23:44:15.583Z,99991.00
2022-08-19T23:46:55.267Z,99987.00
2022-08-19T23:49:25.255Z,99985.00
2022-08-19T23:51:55.661Z,99993.00
2022-08-19T23:54:42.787Z,99989.00
2022-08-19T23:57:13.986Z,99988.00
2022-08-19T23:59:43.337Z,99989.00
